sensor_id;sensor_type;location;lat;lon;timestamp;pressure;altitude;pressure_sealevel;temperature;humidity
20043;BME280;10182;52.896;6.496;2023-05-12T00:01:01;101667.69;;;10.67;100.00
20043;BME280;10182;52.896;6.496;2023-05-12T00:06:04;101672.13;;;10.66;100.00
20043;BME280;10182;52.896;6.496;2023-05-12T00:11:06;101672.94;;;10.69;100.00
20043;BME280;10182;52.896;6.496;2023-05-12T00:16:08;101681.56;;;10.75;100.00
20043;BME280;10182;52.896;6.496;2023-05-12T00:21:11;101671.97;;;10.71;100.00
20043;BME280;10182;52.896;6.496;2023-05-12T00:26:13;101667.69;;;10.67;100.00
20043;BME280;10182;52.896;6.496;2023-05-12T00:31:14;101658.94;;;10.65;100.00
20043;BME280;10182;52.896;6.496;2023-05-12T00:36:17;101656.19;;;10.68;100.00
20043;BME280;10182;52.896;6.496;2023-05-12T00:41:22;101659.56;;;10.73;100.00
20043;BME280;10182;52.896;6.496;2023-05-12T00:46:23;101659.69;;;10.69;100.00
20043;BME280;10182;52.896;6.496;2023-05-12T00:51:27;101665.88;;;10.69;100.00
20043;BME280;10182;52.896;6.496;2023-05-12T00:56:28;101655.97;;;10.74;100.00
20043;BME280;10182;52.896;6.496;2023-05-12T01:01:30;101653.22;;;10.77;100.00
20043;BME280;10182;52.896;6.496;2023-05-12T01:06:37;101653.22;;;10.77;100.00
20043;BME280;10182;52.896;6.496;2023-05-12T01:11:39;101650.59;;;10.77;100.00
20043;BME280;10182;52.896;6.496;2023-05-12T01:16:44;101648.53;;;10.86;100.00
20043;BME280;10182;52.896;6.496;2023-05-12T01:21:50;101636.31;;;10.81;100.00
20043;BME280;10182;52.896;6.496;2023-05-12T01:26:53;101650.22;;;10.88;100.00
20043;BME280;10182;52.896;6.496;2023-05-12T01:31:55;101641.44;;;10.86;100.00
20043;BME280;10182;52.896;6.496;2023-05-12T01:36:57;101644.16;;;10.84;100.00
20043;BME280;10182;52.896;6.496;2023-05-12T01:42:00;101649.44;;;10.84;100.00
20043;BME280;10182;52.896;6.496;2023-05-12T01:47:02;101659.09;;;10.87;100.00
20043;BME280;10182;52.896;6.496;2023-05-12T01:52:04;101659.88;;;10.89;100.00
20043;BME280;10182;52.896;6.496;2023-05-12T01:57:08;101666.94;;;10.90;100.00
20043;BME280;10182;52.896;6.496;2023-05-12T02:02:09;101663.31;;;10.93;100.00
20043;BME280;10182;52.896;6.496;2023-05-12T02:07:12;101667.50;;;11.00;100.00
20043;BME280;10182;52.896;6.496;2023-05-12T02:12:16;101676.31;;;11.00;100.00
20043;BME280;10182;52.896;6.496;2023-05-12T02:17:18;101678.97;;;11.00;100.00
20043;BME280;10182;52.896;6.496;2023-05-12T02:22:20;101677.06;;;11.04;100.00
20043;BME280;10182;52.896;6.496;2023-05-12T02:27:23;101675.25;;;11.06;100.00
20043;BME280;10182;52.896;6.496;2023-05-12T02:32:24;101679.63;;;11.07;100.00
20043;BME280;10182;52.896;6.496;2023-05-12T02:37:27;101673.41;;;11.08;100.00
20043;BME280;10182;52.896;6.496;2023-05-12T02:42:30;101669.72;;;11.12;100.00
20043;BME280;10182;52.896;6.496;2023-05-12T02:47:34;101676.75;;;11.13;100.00
20043;BME280;10182;52.896;6.496;2023-05-12T02:52:36;101689.16;;;11.13;100.00
20043;BME280;10182;52.896;6.496;2023-05-12T02:57:39;101690.03;;;11.13;100.00
20043;BME280;10182;52.896;6.496;2023-05-12T03:02:41;101679.34;;;11.15;100.00
20043;BME280;10182;52.896;6.496;2023-05-12T03:07:43;101690.94;;;11.12;100.00
20043;BME280;10182;52.896;6.496;2023-05-12T03:12:46;101674.09;;;11.13;100.00
20043;BME280;10182;52.896;6.496;2023-05-12T03:17:48;101678.44;;;11.16;100.00
20043;BME280;10182;52.896;6.496;2023-05-12T03:22:49;101683.69;;;11.17;100.00
20043;BME280;10182;52.896;6.496;2023-05-12T03:27:53;101690.75;;;11.18;100.00
20043;BME280;10182;52.896;6.496;2023-05-12T03:32:54;101689.81;;;11.20;100.00
20043;BME280;10182;52.896;6.496;2023-05-12T03:37:56;101689.81;;;11.20;100.00
20043;BME280;10182;52.896;6.496;2023-05-12T03:42:59;101697.81;;;11.18;100.00
20043;BME280;10182;52.896;6.496;2023-05-12T03:48:00;101692.47;;;11.20;100.00
20043;BME280;10182;52.896;6.496;2023-05-12T03:53:02;101696.84;;;11.21;100.00
20043;BME280;10182;52.896;6.496;2023-05-12T03:58:05;101705.50;;;11.26;100.00
20043;BME280;10182;52.896;6.496;2023-05-12T04:03:07;101703.75;;;11.26;100.00
20043;BME280;10182;52.896;6.496;2023-05-12T04:08:09;101702.84;;;11.26;100.00
20043;BME280;10182;52.896;6.496;2023-05-12T04:13:12;101704.53;;;11.28;100.00
20043;BME280;10182;52.896;6.496;2023-05-12T04:18:13;101700.22;;;11.26;100.00
20043;BME280;10182;52.896;6.496;2023-05-12T04:23:15;101710.88;;;11.24;100.00
20043;BME280;10182;52.896;6.496;2023-05-12T04:28:18;101707.19;;;11.28;100.00
20043;BME280;10182;52.896;6.496;2023-05-12T04:33:20;101709.00;;;11.28;100.00
20043;BME280;10182;52.896;6.496;2023-05-12T04:38:22;101714.91;;;11.36;100.00
20043;BME280;10182;52.896;6.496;2023-05-12T04:43:25;101711.22;;;11.40;100.00
20043;BME280;10182;52.896;6.496;2023-05-12T04:48:26;101715.59;;;11.41;100.00
20043;BME280;10182;52.896;6.496;2023-05-12T04:53:28;101720.81;;;11.44;100.00
20043;BME280;10182;52.896;6.496;2023-05-12T04:58:35;101726.91;;;11.46;100.00
20043;BME280;10182;52.896;6.496;2023-05-12T05:03:37;101736.81;;;11.41;100.00
20043;BME280;10182;52.896;6.496;2023-05-12T05:08:39;101742.09;;;11.43;100.00
20043;BME280;10182;52.896;6.496;2023-05-12T05:13:42;101740.34;;;11.42;100.00
20043;BME280;10182;52.896;6.496;2023-05-12T05:18:44;101744.50;;;11.49;100.00
20043;BME280;10182;52.896;6.496;2023-05-12T05:23:47;101750.72;;;11.48;100.00
20043;BME280;10182;52.896;6.496;2023-05-12T05:28:50;101753.25;;;11.52;100.00
20043;BME280;10182;52.896;6.496;2023-05-12T05:33:54;101759.09;;;11.62;100.00
20043;BME280;10182;52.896;6.496;2023-05-12T05:38:56;101757.41;;;11.60;100.00
20043;BME280;10182;52.896;6.496;2023-05-12T05:43:59;101760.78;;;11.65;100.00
20043;BME280;10182;52.896;6.496;2023-05-12T05:49:00;101763.38;;;11.66;100.00
20043;BME280;10182;52.896;6.496;2023-05-12T05:54:02;101769.47;;;11.68;100.00
20043;BME280;10182;52.896;6.496;2023-05-12T05:59:05;101770.38;;;11.69;100.00
20043;BME280;10182;52.896;6.496;2023-05-12T06:04:07;101784.16;;;11.79;100.00
20043;BME280;10182;52.896;6.496;2023-05-12T06:09:09;101775.19;;;11.83;100.00
20043;BME280;10182;52.896;6.496;2023-05-12T06:14:13;101791.88;;;11.87;100.00
20043;BME280;10182;52.896;6.496;2023-05-12T06:19:14;101798.88;;;11.89;100.00
20043;BME280;10182;52.896;6.496;2023-05-12T06:24:16;101810.28;;;11.91;100.00
20043;BME280;10182;52.896;6.496;2023-05-12T06:29:19;101805.53;;;12.01;100.00
20043;BME280;10182;52.896;6.496;2023-05-12T06:34:21;101807.34;;;12.00;100.00
20043;BME280;10182;52.896;6.496;2023-05-12T06:39:23;101818.75;;;12.02;100.00
20043;BME280;10182;52.896;6.496;2023-05-12T06:44:26;101815.19;;;12.04;100.00
20043;BME280;10182;52.896;6.496;2023-05-12T06:49:27;101833.66;;;12.07;100.00
20043;BME280;10182;52.896;6.496;2023-05-12T06:54:30;101827.38;;;12.09;100.00
20043;BME280;10182;52.896;6.496;2023-05-12T06:59:33;101843.31;;;12.09;100.00
20043;BME280;10182;52.896;6.496;2023-05-12T07:04:35;101829.00;;;12.13;100.00
20043;BME280;10182;52.896;6.496;2023-05-12T07:09:36;101837.78;;;12.15;100.00
20043;BME280;10182;52.896;6.496;2023-05-12T07:14:41;101828.78;;;12.19;100.00
20043;BME280;10182;52.896;6.496;2023-05-12T07:19:43;101847.16;;;12.26;100.00
20043;BME280;10182;52.896;6.496;2023-05-12T07:24:44;101849.94;;;12.23;100.00
20043;BME280;10182;52.896;6.496;2023-05-12T07:29:47;101847.38;;;12.19;100.00
20043;BME280;10182;52.896;6.496;2023-05-12T07:34:49;101841.84;;;12.26;100.00
20043;BME280;10182;52.896;6.496;2023-05-12T07:39:51;101847.59;;;12.39;100.00
20043;BME280;10182;52.896;6.496;2023-05-12T07:44:54;101868.09;;;12.59;100.00
20043;BME280;10182;52.896;6.496;2023-05-12T07:49:55;101855.34;;;12.68;100.00
20043;BME280;10182;52.896;6.496;2023-05-12T07:54:57;101866.34;;;12.81;100.00
20043;BME280;10182;52.896;6.496;2023-05-12T08:00:00;101864.47;;;12.85;100.00
20043;BME280;10182;52.896;6.496;2023-05-12T08:05:02;101868.06;;;13.06;100.00
20043;BME280;10182;52.896;6.496;2023-05-12T08:10:05;101869.06;;;13.26;100.00
20043;BME280;10182;52.896;6.496;2023-05-12T08:15:09;101870.56;;;13.33;100.00
20043;BME280;10182;52.896;6.496;2023-05-12T08:20:11;101880.38;;;13.54;100.00
20043;BME280;10182;52.896;6.496;2023-05-12T08:25:13;101886.91;;;13.68;100.00
20043;BME280;10182;52.896;6.496;2023-05-12T08:30:16;101877.63;;;13.78;100.00
20043;BME280;10182;52.896;6.496;2023-05-12T08:35:18;101881.00;;;13.82;100.00
20043;BME280;10182;52.896;6.496;2023-05-12T08:40:20;101892.78;;;13.97;100.00
20043;BME280;10182;52.896;6.496;2023-05-12T08:45:24;101897.56;;;14.11;100.00
20043;BME280;10182;52.896;6.496;2023-05-12T08:50:26;101887.88;;;14.29;100.00
20043;BME280;10182;52.896;6.496;2023-05-12T08:55:29;101879.19;;;14.44;100.00
20043;BME280;10182;52.896;6.496;2023-05-12T09:00:33;101872.78;;;14.48;100.00
20043;BME280;10182;52.896;6.496;2023-05-12T09:05:35;101879.09;;;14.66;100.00
20043;BME280;10182;52.896;6.496;2023-05-12T09:10:38;101870.84;;;14.92;100.00
20043;BME280;10182;52.896;6.496;2023-05-12T09:15:44;101874.72;;;15.03;100.00
20043;BME280;10182;52.896;6.496;2023-05-12T09:20:47;101865.19;;;15.17;100.00
20043;BME280;10182;52.896;6.496;2023-05-12T09:25:58;101884.06;;;15.50;100.00
20043;BME280;10182;52.896;6.496;2023-05-12T09:31:13;101875.81;;;15.72;100.00
20043;BME280;10182;52.896;6.496;2023-05-12T09:36:18;101874.50;;;15.81;100.00
20043;BME280;10182;52.896;6.496;2023-05-12T09:41:21;101880.03;;;15.96;100.00
20043;BME280;10182;52.896;6.496;2023-05-12T09:46:25;101879.56;;;16.22;100.00
20043;BME280;10182;52.896;6.496;2023-05-12T09:51:26;101878.81;;;16.36;100.00
20043;BME280;10182;52.896;6.496;2023-05-12T09:56:29;101859.38;;;16.66;100.00
20043;BME280;10182;52.896;6.496;2023-05-12T10:01:34;101875.28;;;16.85;100.00
20043;BME280;10182;52.896;6.496;2023-05-12T10:06:39;101860.56;;;17.10;100.00
20043;BME280;10182;52.896;6.496;2023-05-12T10:11:43;101853.19;;;17.46;100.00
20043;BME280;10182;52.896;6.496;2023-05-12T10:16:48;101858.03;;;17.69;100.00
20043;BME280;10182;52.896;6.496;2023-05-12T10:21:50;101858.09;;;17.84;100.00
20043;BME280;10182;52.896;6.496;2023-05-12T10:26:52;101861.53;;;18.02;100.00
20043;BME280;10182;52.896;6.496;2023-05-12T10:31:56;101868.53;;;18.19;100.00
20043;BME280;10182;52.896;6.496;2023-05-12T10:36:58;101848.41;;;18.26;100.00
20043;BME280;10182;52.896;6.496;2023-05-12T10:42:00;101847.84;;;18.35;100.00
20043;BME280;10182;52.896;6.496;2023-05-12T10:47:12;101846.03;;;18.50;100.00
20043;BME280;10182;52.896;6.496;2023-05-12T10:52:18;101847.09;;;18.62;100.00
20043;BME280;10182;52.896;6.496;2023-05-12T10:57:20;101840.56;;;18.66;100.00
20043;BME280;10182;52.896;6.496;2023-05-12T11:02:24;101848.13;;;18.59;100.00
20043;BME280;10182;52.896;6.496;2023-05-12T11:07:30;101841.31;;;18.83;100.00
20043;BME280;10182;52.896;6.496;2023-05-12T11:12:34;101848.66;;;19.08;100.00
20043;BME280;10182;52.896;6.496;2023-05-12T11:17:41;101842.22;;;19.38;100.00
20043;BME280;10182;52.896;6.496;2023-05-12T11:22:42;101841.28;;;19.52;100.00
20043;BME280;10182;52.896;6.496;2023-05-12T11:27:47;101841.03;;;19.42;100.00
20043;BME280;10182;52.896;6.496;2023-05-12T11:33:00;101842.56;;;19.46;100.00
20043;BME280;10182;52.896;6.496;2023-05-12T11:38:13;101849.50;;;19.63;100.00
20043;BME280;10182;52.896;6.496;2023-05-12T11:43:19;101852.31;;;19.61;100.00
20043;BME280;10182;52.896;6.496;2023-05-12T11:48:32;101849.72;;;19.73;100.00
20043;BME280;10182;52.896;6.496;2023-05-12T11:53:39;101848.59;;;19.90;100.00
20043;BME280;10182;52.896;6.496;2023-05-12T11:58:51;101845.50;;;20.09;100.00
20043;BME280;10182;52.896;6.496;2023-05-12T12:03:54;101843.56;;;20.24;100.00
20043;BME280;10182;52.896;6.496;2023-05-12T12:08:57;101836.44;;;20.49;100.00
20043;BME280;10182;52.896;6.496;2023-05-12T12:13:59;101843.88;;;20.45;100.00
20043;BME280;10182;52.896;6.496;2023-05-12T12:19:03;101852.91;;;20.57;100.00
20043;BME280;10182;52.896;6.496;2023-05-12T12:24:05;101847.94;;;20.63;100.00
20043;BME280;10182;52.896;6.496;2023-05-12T12:29:07;101844.81;;;20.83;100.00
20043;BME280;10182;52.896;6.496;2023-05-12T12:34:10;101845.28;;;21.01;100.00
20043;BME280;10182;52.896;6.496;2023-05-12T12:39:11;101852.75;;;21.21;100.00
20043;BME280;10182;52.896;6.496;2023-05-12T12:44:14;101846.72;;;21.42;100.00
20043;BME280;10182;52.896;6.496;2023-05-12T12:49:17;101848.72;;;21.51;100.00
20043;BME280;10182;52.896;6.496;2023-05-12T12:54:18;101854.03;;;21.53;100.00
20043;BME280;10182;52.896;6.496;2023-05-12T12:59:20;101851.63;;;21.37;100.00
20043;BME280;10182;52.896;6.496;2023-05-12T13:04:24;101844.31;;;21.02;100.00
20043;BME280;10182;52.896;6.496;2023-05-12T13:09:25;101842.41;;;20.91;99.88
20043;BME280;10182;52.896;6.496;2023-05-12T13:14:27;101851.59;;;21.12;90.50
20043;BME280;10182;52.896;6.496;2023-05-12T13:19:30;101843.44;;;21.74;86.49
20043;BME280;10182;52.896;6.496;2023-05-12T13:24:32;101851.13;;;22.03;83.18
20043;BME280;10182;52.896;6.496;2023-05-12T13:29:34;101841.28;;;22.02;74.61
20043;BME280;10182;52.896;6.496;2023-05-12T13:34:37;101839.34;;;21.57;68.35
20043;BME280;10182;52.896;6.496;2023-05-12T13:39:39;101836.66;;;21.33;72.18
20043;BME280;10182;52.896;6.496;2023-05-12T13:44:41;101834.50;;;21.01;57.44
20043;BME280;10182;52.896;6.496;2023-05-12T13:49:44;101832.91;;;20.98;62.81
20043;BME280;10182;52.896;6.496;2023-05-12T13:54:45;101834.31;;;21.04;66.57
20043;BME280;10182;52.896;6.496;2023-05-12T13:59:47;101830.56;;;21.18;69.67
20043;BME280;10182;52.896;6.496;2023-05-12T14:04:51;101839.19;;;21.23;66.17
20043;BME280;10182;52.896;6.496;2023-05-12T14:09:52;101837.13;;;20.89;69.61
20043;BME280;10182;52.896;6.496;2023-05-12T14:14:54;101829.31;;;20.73;69.57
20043;BME280;10182;52.896;6.496;2023-05-12T14:19:57;101831.09;;;20.86;74.40
20043;BME280;10182;52.896;6.496;2023-05-12T14:24:59;101833.88;;;21.45;69.02
20043;BME280;10182;52.896;6.496;2023-05-12T14:30:01;101832.69;;;21.25;71.70
20043;BME280;10182;52.896;6.496;2023-05-12T14:35:05;101830.03;;;20.88;83.94
20043;BME280;10182;52.896;6.496;2023-05-12T14:40:08;101832.34;;;20.69;90.93
20043;BME280;10182;52.896;6.496;2023-05-12T14:45:10;101840.94;;;20.61;91.54
20043;BME280;10182;52.896;6.496;2023-05-12T14:50:13;101838.06;;;20.51;84.58
20043;BME280;10182;52.896;6.496;2023-05-12T14:55:15;101843.75;;;20.59;86.27
20043;BME280;10182;52.896;6.496;2023-05-12T15:00:17;101849.13;;;20.59;90.88
20043;BME280;10182;52.896;6.496;2023-05-12T15:05:21;101842.91;;;20.59;75.72
20043;BME280;10182;52.896;6.496;2023-05-12T15:10:23;101849.44;;;20.68;79.94
20043;BME280;10182;52.896;6.496;2023-05-12T15:15:25;101851.72;;;20.74;71.72
20043;BME280;10182;52.896;6.496;2023-05-12T15:20:28;101850.31;;;20.81;69.23
20043;BME280;10182;52.896;6.496;2023-05-12T15:25:30;101855.75;;;20.92;84.73
20043;BME280;10182;52.896;6.496;2023-05-12T15:30:32;101858.88;;;20.99;83.88
20043;BME280;10182;52.896;6.496;2023-05-12T15:35:38;101862.63;;;20.96;73.74
20043;BME280;10182;52.896;6.496;2023-05-12T15:40:39;101858.81;;;20.75;72.54
20043;BME280;10182;52.896;6.496;2023-05-12T15:45:41;101859.56;;;20.77;85.00
20043;BME280;10182;52.896;6.496;2023-05-12T15:50:44;101860.69;;;20.99;81.58
20043;BME280;10182;52.896;6.496;2023-05-12T15:55:46;101858.88;;;20.99;73.89
20043;BME280;10182;52.896;6.496;2023-05-12T16:00:49;101864.41;;;21.22;67.12
20043;BME280;10182;52.896;6.496;2023-05-12T16:05:52;101860.44;;;21.39;61.53
20043;BME280;10182;52.896;6.496;2023-05-12T16:10:54;101858.81;;;21.36;74.05
20043;BME280;10182;52.896;6.496;2023-05-12T16:15:56;101860.53;;;21.13;68.29
20043;BME280;10182;52.896;6.496;2023-05-12T16:20:59;101864.72;;;20.93;76.25
20043;BME280;10182;52.896;6.496;2023-05-12T16:26:02;101866.53;;;20.67;68.53
20043;BME280;10182;52.896;6.496;2023-05-12T16:31:04;101868.63;;;20.50;72.54
20043;BME280;10182;52.896;6.496;2023-05-12T16:36:07;101861.75;;;20.33;72.97
20043;BME280;10182;52.896;6.496;2023-05-12T16:41:09;101856.25;;;20.35;66.02
20043;BME280;10182;52.896;6.496;2023-05-12T16:46:10;101849.16;;;20.34;71.76
20043;BME280;10182;52.896;6.496;2023-05-12T16:51:14;101859.19;;;20.32;84.70
20043;BME280;10182;52.896;6.496;2023-05-12T16:56:15;101859.06;;;20.33;86.30
20043;BME280;10182;52.896;6.496;2023-05-12T17:01:17;101860.19;;;20.68;65.42
20043;BME280;10182;52.896;6.496;2023-05-12T17:06:20;101860.34;;;20.79;68.99
20043;BME280;10182;52.896;6.496;2023-05-12T17:11:22;101878.84;;;20.71;74.65
20043;BME280;10182;52.896;6.496;2023-05-12T17:16:25;101882.31;;;20.60;89.58
20043;BME280;10182;52.896;6.496;2023-05-12T17:21:28;101873.81;;;20.53;100.00
20043;BME280;10182;52.896;6.496;2023-05-12T17:26:30;101887.13;;;20.42;100.00
20043;BME280;10182;52.896;6.496;2023-05-12T17:31:32;101895.44;;;20.26;100.00
20043;BME280;10182;52.896;6.496;2023-05-12T17:36:35;101908.56;;;20.18;100.00
20043;BME280;10182;52.896;6.496;2023-05-12T17:41:37;101907.34;;;19.96;100.00
20043;BME280;10182;52.896;6.496;2023-05-12T17:46:38;101908.50;;;19.92;100.00
20043;BME280;10182;52.896;6.496;2023-05-12T17:51:42;101906.63;;;19.79;100.00
20043;BME280;10182;52.896;6.496;2023-05-12T17:57:02;101916.78;;;19.61;100.00
20043;BME280;10182;52.896;6.496;2023-05-12T18:02:03;101915.44;;;19.54;100.00
20043;BME280;10182;52.896;6.496;2023-05-12T18:07:06;101919.50;;;19.47;100.00
20043;BME280;10182;52.896;6.496;2023-05-12T18:12:08;101923.56;;;19.40;100.00
20043;BME280;10182;52.896;6.496;2023-05-12T18:17:10;101926.00;;;19.30;100.00
20043;BME280;10182;52.896;6.496;2023-05-12T18:22:13;101928.59;;;19.17;100.00
20043;BME280;10182;52.896;6.496;2023-05-12T18:27:16;101926.34;;;19.11;100.00
20043;BME280;10182;52.896;6.496;2023-05-12T18:32:18;101929.13;;;18.95;100.00
20043;BME280;10182;52.896;6.496;2023-05-12T18:37:21;101937.81;;;18.84;100.00
20043;BME280;10182;52.896;6.496;2023-05-12T18:42:23;101950.19;;;18.72;100.00
20043;BME280;10182;52.896;6.496;2023-05-12T18:47:25;101952.09;;;18.56;100.00
20043;BME280;10182;52.896;6.496;2023-05-12T18:52:28;101956.75;;;18.38;100.00
20043;BME280;10182;52.896;6.496;2023-05-12T18:57:30;101966.13;;;18.31;100.00
20043;BME280;10182;52.896;6.496;2023-05-12T19:02:32;101976.16;;;18.13;100.00
20043;BME280;10182;52.896;6.496;2023-05-12T19:07:35;101982.66;;;17.92;100.00
20043;BME280;10182;52.896;6.496;2023-05-12T19:12:36;101988.00;;;17.76;100.00
20043;BME280;10182;52.896;6.496;2023-05-12T19:17:38;101992.00;;;17.69;100.00
20043;BME280;10182;52.896;6.496;2023-05-12T19:22:42;101991.41;;;17.48;100.00
20043;BME280;10182;52.896;6.496;2023-05-12T19:27:44;102003.66;;;17.36;100.00
20043;BME280;10182;52.896;6.496;2023-05-12T19:32:46;102001.91;;;17.19;100.00
20043;BME280;10182;52.896;6.496;2023-05-12T19:37:50;102006.38;;;17.03;100.00
20043;BME280;10182;52.896;6.496;2023-05-12T19:42:52;102005.88;;;16.79;100.00
20043;BME280;10182;52.896;6.496;2023-05-12T19:47:54;102020.09;;;16.62;100.00
20043;BME280;10182;52.896;6.496;2023-05-12T19:52:58;102014.06;;;16.40;100.00
20043;BME280;10182;52.896;6.496;2023-05-12T19:57:59;102012.56;;;16.17;100.00
20043;BME280;10182;52.896;6.496;2023-05-12T20:03:02;102026.94;;;16.15;100.00
20043;BME280;10182;52.896;6.496;2023-05-12T20:08:06;102030.78;;;16.09;100.00
20043;BME280;10182;52.896;6.496;2023-05-12T20:13:07;102029.91;;;15.91;100.00
20043;BME280;10182;52.896;6.496;2023-05-12T20:18:09;102029.53;;;15.80;100.00
20043;BME280;10182;52.896;6.496;2023-05-12T20:23:14;102030.59;;;15.76;100.00
20043;BME280;10182;52.896;6.496;2023-05-12T20:28:16;102037.59;;;15.59;100.00
20043;BME280;10182;52.896;6.496;2023-05-12T20:33:17;102044.44;;;15.46;100.00
20043;BME280;10182;52.896;6.496;2023-05-12T20:38:21;102052.25;;;15.31;100.00
20043;BME280;10182;52.896;6.496;2023-05-12T20:43:23;102061.66;;;15.19;100.00
20043;BME280;10182;52.896;6.496;2023-05-12T20:48:25;102061.66;;;15.19;100.00
20043;BME280;10182;52.896;6.496;2023-05-12T20:53:28;102062.50;;;15.01;100.00
20043;BME280;10182;52.896;6.496;2023-05-12T20:58:30;102051.44;;;14.89;100.00
20043;BME280;10182;52.896;6.496;2023-05-12T21:03:32;102061.84;;;14.75;100.00
20043;BME280;10182;52.896;6.496;2023-05-12T21:08:35;102058.38;;;14.73;100.00
20043;BME280;10182;52.896;6.496;2023-05-12T21:13:37;102065.91;;;14.63;100.00
20043;BME280;10182;52.896;6.496;2023-05-12T21:18:38;102060.13;;;14.52;100.00
20043;BME280;10182;52.896;6.496;2023-05-12T21:23:42;102065.00;;;14.42;100.00
20043;BME280;10182;52.896;6.496;2023-05-12T21:28:43;102076.38;;;14.46;100.00
20043;BME280;10182;52.896;6.496;2023-05-12T21:33:45;102067.50;;;14.25;100.00
20043;BME280;10182;52.896;6.496;2023-05-12T21:38:48;102065.06;;;13.96;100.00
20043;BME280;10182;52.896;6.496;2023-05-12T21:43:50;102071.59;;;13.65;100.00
20043;BME280;10182;52.896;6.496;2023-05-12T21:48:52;102065.25;;;13.46;100.00
20043;BME280;10182;52.896;6.496;2023-05-12T21:53:55;102067.69;;;13.27;100.00
20043;BME280;10182;52.896;6.496;2023-05-12T21:58:56;102071.84;;;13.10;100.00
20043;BME280;10182;52.896;6.496;2023-05-12T22:03:58;102075.84;;;12.97;100.00
20043;BME280;10182;52.896;6.496;2023-05-12T22:09:01;102076.88;;;12.93;100.00
20043;BME280;10182;52.896;6.496;2023-05-12T22:14:04;102076.22;;;12.88;100.00
20043;BME280;10182;52.896;6.496;2023-05-12T22:19:05;102076.00;;;12.67;100.00
20043;BME280;10182;52.896;6.496;2023-05-12T22:24:09;102079.59;;;12.66;100.00
20043;BME280;10182;52.896;6.496;2023-05-12T22:29:11;102086.13;;;12.56;100.00
20043;BME280;10182;52.896;6.496;2023-05-12T22:34:12;102084.09;;;12.64;100.00
20043;BME280;10182;52.896;6.496;2023-05-12T22:39:16;102085.84;;;12.65;100.00
20043;BME280;10182;52.896;6.496;2023-05-12T22:44:19;102086.81;;;12.62;100.00
20043;BME280;10182;52.896;6.496;2023-05-12T22:49:20;102092.88;;;12.39;100.00
20043;BME280;10182;52.896;6.496;2023-05-12T22:54:23;102082.31;;;12.38;100.00
20043;BME280;10182;52.896;6.496;2023-05-12T22:59:25;102080.50;;;12.11;100.00
20043;BME280;10182;52.896;6.496;2023-05-12T23:04:27;102079.00;;;12.02;100.00
20043;BME280;10182;52.896;6.496;2023-05-12T23:09:30;102075.53;;;12.00;100.00
20043;BME280;10182;52.896;6.496;2023-05-12T23:14:31;102074.81;;;11.95;100.00
20043;BME280;10182;52.896;6.496;2023-05-12T23:19:33;102077.53;;;11.92;100.00
20043;BME280;10182;52.896;6.496;2023-05-12T23:24:37;102077.31;;;11.70;100.00
20043;BME280;10182;52.896;6.496;2023-05-12T23:29:39;102078.41;;;11.63;100.00
20043;BME280;10182;52.896;6.496;2023-05-12T23:34:41;102072.28;;;11.61;100.00
20043;BME280;10182;52.896;6.496;2023-05-12T23:39:44;102075.06;;;11.56;100.00
20043;BME280;10182;52.896;6.496;2023-05-12T23:44:46;102070.94;;;11.46;100.00
20043;BME280;10182;52.896;6.496;2023-05-12T23:49:48;102074.72;;;11.39;100.00
20043;BME280;10182;52.896;6.496;2023-05-12T23:54:51;102076.66;;;11.32;100.00
20043;BME280;10182;52.896;6.496;2023-05-12T23:59:53;102077.81;;;11.22;100.00
